createdAt,value
2023-04-02T00:00:23.840Z,0.30
2023-04-02T00:01:24.011Z,0.40
2023-04-02T00:02:21.186Z,0.30
2023-04-02T00:03:10.513Z,0.40
2023-04-02T00:03:59.905Z,0.30
2023-04-02T00:04:41.984Z,0.38
2023-04-02T00:05:30.417Z,0.30
2023-04-02T00:06:33.829Z,0.30
2023-04-02T00:07:33.545Z,0.22
2023-04-02T00:08:25.935Z,0.32
2023-04-02T00:09:13.749Z,0.30
2023-04-02T00:09:57.585Z,0.20
2023-04-02T00:10:49.084Z,0.30
2023-04-02T00:11:37.528Z,0.50
2023-04-02T00:12:20.352Z,0.40
2023-04-02T00:13:11.965Z,0.38
2023-04-02T00:13:54.200Z,0.38
2023-04-02T00:14:36.772Z,0.40
2023-04-02T00:15:18.908Z,0.30
2023-04-02T00:16:03.595Z,0.30
2023-04-02T00:16:46.165Z,0.40
2023-04-02T00:17:28.313Z,0.20
2023-04-02T00:18:16.532Z,0.30
2023-04-02T00:19:05.588Z,0.30
2023-04-02T00:20:09.036Z,0.22
2023-04-02T00:21:00.633Z,0.35
2023-04-02T00:21:46.241Z,0.43
2023-04-02T00:22:32.416Z,0.20
2023-04-02T00:23:15.552Z,0.20
2023-04-02T00:24:00.967Z,0.35
2023-04-02T00:24:43.519Z,0.20
2023-04-02T00:25:28.813Z,0.30
2023-04-02T00:26:32.367Z,0.30
2023-04-02T00:27:15.646Z,0.30
2023-04-02T00:27:58.101Z,0.30
2023-04-02T00:28:40.804Z,0.30
2023-04-02T00:29:24.341Z,0.30
2023-04-02T00:30:08.849Z,0.40
2023-04-02T00:30:55.909Z,0.30
2023-04-02T00:31:44.462Z,0.30
2023-04-02T00:32:35.439Z,0.30
2023-04-02T00:33:21.083Z,0.20
2023-04-02T00:34:09.040Z,0.40
2023-04-02T00:34:51.635Z,0.20
2023-04-02T00:35:39.220Z,0.30
2023-04-02T00:36:23.465Z,0.30
2023-04-02T00:37:05.913Z,0.38
2023-04-02T00:37:49.951Z,0.30
2023-04-02T00:38:34.091Z,0.20
2023-04-02T00:39:22.531Z,0.30
2023-04-02T00:40:10.178Z,0.30
2023-04-02T00:40:56.275Z,0.20
2023-04-02T00:41:38.779Z,0.30
2023-04-02T00:42:21.045Z,0.20
2023-04-02T00:43:06.169Z,0.30
2023-04-02T00:43:51.914Z,0.28
2023-04-02T00:44:38.953Z,0.30
2023-04-02T00:45:28.862Z,0.38
2023-04-02T00:46:16.042Z,0.30
2023-04-02T00:46:58.285Z,0.30
2023-04-02T00:47:40.803Z,0.20
2023-04-02T00:48:37.725Z,0.25
2023-04-02T00:49:34.828Z,0.20
2023-04-02T00:50:31.717Z,0.32
2023-04-02T00:51:22.390Z,0.30
2023-04-02T00:52:16.616Z,0.28
2023-04-02T00:53:03.987Z,0.30
2023-04-02T00:53:48.074Z,0.38
2023-04-02T00:54:37.264Z,0.20
2023-04-02T00:55:36.301Z,0.35
2023-04-02T00:56:33.372Z,0.30
2023-04-02T00:57:18.154Z,0.35
2023-04-02T00:58:01.830Z,0.20
2023-04-02T00:58:44.813Z,0.30
2023-04-02T00:59:32.417Z,0.40
2023-04-02T01:00:15.814Z,0.22
2023-04-02T01:00:59.097Z,0.40
2023-04-02T01:02:38.436Z,0.30
2023-04-02T01:03:22.903Z,0.40
2023-04-02T01:04:06.044Z,0.50
2023-04-02T01:05:22.182Z,0.40
2023-04-02T01:06:43.839Z,0.30
2023-04-02T01:07:40.236Z,0.45
2023-04-02T01:08:38.503Z,0.30
2023-04-02T01:09:42.772Z,0.30
2023-04-02T01:10:38.149Z,0.30
2023-04-02T01:11:47.443Z,0.30
2023-04-02T01:12:34.443Z,0.32
2023-04-02T01:13:24.122Z,0.32
2023-04-02T01:14:30.837Z,0.40
2023-04-02T01:15:15.544Z,0.40
2023-04-02T01:16:26.097Z,0.40
2023-04-02T01:17:38.211Z,0.30
2023-04-02T01:18:50.709Z,0.38
2023-04-02T01:19:58.400Z,0.45
2023-04-02T01:21:06.479Z,0.40
2023-04-02T01:22:01.164Z,0.35
2023-04-02T01:23:16.923Z,0.40
2023-04-02T01:24:01.417Z,0.28
2023-04-02T01:24:44.114Z,0.40
2023-04-02T01:25:41.359Z,0.38
2023-04-02T01:26:27.241Z,0.47
2023-04-02T01:27:25.922Z,0.45
2023-04-02T01:28:22.253Z,0.40
2023-04-02T01:29:12.864Z,0.40
2023-04-02T01:29:57.604Z,0.40
2023-04-02T01:30:41.491Z,0.30
2023-04-02T01:31:23.816Z,0.30
2023-04-02T01:32:10.278Z,0.60
2023-04-02T01:32:53.910Z,0.30
2023-04-02T01:33:35.685Z,0.40
2023-04-02T01:34:22.221Z,0.50
2023-04-02T01:35:05.825Z,0.32
2023-04-02T01:35:52.676Z,0.50
2023-04-02T01:37:06.383Z,0.50
2023-04-02T01:38:03.101Z,0.38
2023-04-02T01:38:54.268Z,0.50
2023-04-02T01:40:11.103Z,0.55
2023-04-02T01:40:55.262Z,0.30
2023-04-02T01:41:47.864Z,0.30
2023-04-02T01:42:48.309Z,0.60
2023-04-02T01:43:37.252Z,0.50
2023-04-02T01:44:29.736Z,0.45
2023-04-02T01:45:17.433Z,0.43
2023-04-02T01:46:00.225Z,0.30
2023-04-02T01:46:42.998Z,0.30
2023-04-02T01:47:28.968Z,0.40
2023-04-02T01:48:19.844Z,0.40
2023-04-02T01:49:11.990Z,0.40
2023-04-02T01:50:01.056Z,0.40
2023-04-02T01:50:45.679Z,0.60
2023-04-02T01:51:34.235Z,0.40
2023-04-02T01:52:34.517Z,0.32
2023-04-02T01:53:18.875Z,0.40
2023-04-02T01:54:02.827Z,0.30
2023-04-02T01:54:47.195Z,0.40
2023-04-02T01:55:32.289Z,0.40
2023-04-02T01:56:14.650Z,0.30
2023-04-02T01:56:57.430Z,0.40
2023-04-02T01:57:42.722Z,0.30
2023-04-02T01:58:31.610Z,0.30
2023-04-02T01:59:18.403Z,0.40
2023-04-02T02:00:02.206Z,0.40
2023-04-02T02:00:55.682Z,0.40
2023-04-02T02:01:52.605Z,0.32
2023-04-02T02:02:34.979Z,0.63
2023-04-02T02:03:18.438Z,0.45
2023-04-02T02:04:02.137Z,0.35
2023-04-02T02:04:44.245Z,0.40
2023-04-02T02:05:26.389Z,0.40
2023-04-02T02:06:13.935Z,0.50
2023-04-02T02:06:58.545Z,0.40
2023-04-02T02:07:41.281Z,0.32
2023-04-02T02:08:34.591Z,0.30
2023-04-02T02:09:30.361Z,0.40
2023-04-02T02:10:18.294Z,0.35
2023-04-02T02:11:00.701Z,0.40
2023-04-02T02:11:42.744Z,0.40
2023-04-02T02:12:24.673Z,0.30
2023-04-02T02:13:06.630Z,0.30
2023-04-02T02:13:56.173Z,0.30
2023-04-02T02:14:37.863Z,0.40
2023-04-02T02:15:22.123Z,0.30
2023-04-02T02:16:04.899Z,0.20
2023-04-02T02:16:47.872Z,0.38
2023-04-02T02:17:34.526Z,0.30
2023-04-02T02:18:23.406Z,0.30
2023-04-02T02:19:05.688Z,0.40
2023-04-02T02:19:51.948Z,0.30
2023-04-02T02:20:35.149Z,0.35
2023-04-02T02:21:35.790Z,0.30
2023-04-02T02:22:39.056Z,0.22
2023-04-02T02:23:21.378Z,0.20
2023-04-02T02:24:04.900Z,0.20
2023-04-02T02:24:47.412Z,0.28
2023-04-02T02:25:33.358Z,0.28
2023-04-02T02:26:16.014Z,0.40
2023-04-02T02:27:36.096Z,0.25
2023-04-02T02:28:33.747Z,0.20
2023-04-02T02:29:19.899Z,0.10
2023-04-02T02:30:27.985Z,0.30
2023-04-02T02:31:18.576Z,0.57
2023-04-02T02:32:04.516Z,0.20
2023-04-02T02:33:23.893Z,0.30
2023-04-02T02:34:16.893Z,0.22
2023-04-02T02:35:28.799Z,0.30
2023-04-02T02:36:36.110Z,0.20
2023-04-02T02:37:29.179Z,0.20
2023-04-02T02:38:39.962Z,0.20
2023-04-02T02:39:42.920Z,0.30
2023-04-02T02:40:35.620Z,0.20
2023-04-02T02:41:56.211Z,0.25
2023-04-02T02:42:44.343Z,0.20
2023-04-02T02:43:26.957Z,0.20
2023-04-02T02:44:08.523Z,0.20
2023-04-02T02:44:53.192Z,0.20
2023-04-02T02:45:38.766Z,0.20
2023-04-02T02:46:23.564Z,0.32
2023-04-02T02:47:28.315Z,0.30
2023-04-02T02:48:18.030Z,0.80
2023-04-02T02:49:02.739Z,0.40
2023-04-02T02:49:49.826Z,0.30
2023-04-02T02:50:33.830Z,0.30
2023-04-02T02:51:27.052Z,0.40
2023-04-02T02:52:08.601Z,0.43
2023-04-02T02:53:03.377Z,0.28
2023-04-02T02:53:53.563Z,0.22
2023-04-02T02:54:42.528Z,0.30
2023-04-02T02:55:32.613Z,0.55
2023-04-02T02:56:23.330Z,0.20
2023-04-02T02:57:09.683Z,0.20
2023-04-02T02:57:58.417Z,0.30
2023-04-02T02:58:43.347Z,0.20
2023-04-02T02:59:32.248Z,0.20
2023-04-02T03:00:19.419Z,0.50
2023-04-02T03:01:01.627Z,0.22
2023-04-02T03:01:44.387Z,0.30
2023-04-02T03:02:28.467Z,0.40
2023-04-02T03:03:16.929Z,0.38
2023-04-02T03:03:59.769Z,0.40
2023-04-02T03:04:47.009Z,0.30
2023-04-02T03:05:30.157Z,0.20
2023-04-02T03:06:20.584Z,0.20
2023-04-02T03:07:09.171Z,0.28
2023-04-02T03:07:53.313Z,0.20
2023-04-02T03:09:05.465Z,0.20
2023-04-02T03:10:09.414Z,0.30
2023-04-02T03:11:05.006Z,0.40
2023-04-02T03:11:56.172Z,2.30
2023-04-02T03:12:51.426Z,0.80
2023-04-02T03:13:35.878Z,1.60
2023-04-02T03:14:42.566Z,1.10
2023-04-02T03:15:51.065Z,0.50
2023-04-02T03:16:42.306Z,0.30
2023-04-02T03:17:35.730Z,0.22
2023-04-02T03:18:48.273Z,0.22
2023-04-02T03:19:40.031Z,0.28
2023-04-02T03:20:37.205Z,0.20
2023-04-02T03:21:49.376Z,0.40
2023-04-02T03:22:41.401Z,0.30
2023-04-02T03:24:12.897Z,0.20
2023-04-02T03:25:04.642Z,0.22
2023-04-02T03:26:18.685Z,0.20
2023-04-02T03:27:12.849Z,0.20
2023-04-02T03:28:01.751Z,0.30
2023-04-02T03:28:50.027Z,0.30
2023-04-02T03:29:36.556Z,0.30
2023-04-02T03:30:48.180Z,0.30
2023-04-02T03:31:43.201Z,0.40
2023-04-02T03:32:33.687Z,0.30
2023-04-02T03:33:23.842Z,0.40
2023-04-02T03:34:17.917Z,0.38
2023-04-02T03:35:06.494Z,0.45
2023-04-02T03:36:43.673Z,0.60
2023-04-02T03:37:42.377Z,0.40
2023-04-02T03:38:32.535Z,0.30
2023-04-02T03:39:36.247Z,0.30
2023-04-02T03:40:31.687Z,0.40
2023-04-02T03:41:27.044Z,0.35
2023-04-02T03:42:26.645Z,0.40
2023-04-02T03:43:20.028Z,0.40
2023-04-02T03:44:07.661Z,0.30
2023-04-02T03:44:56.688Z,0.28
2023-04-02T03:45:42.418Z,0.40
2023-04-02T03:46:34.243Z,0.30
2023-04-02T03:47:24.544Z,0.32
2023-04-02T03:48:24.095Z,0.35
2023-04-02T03:49:11.312Z,0.30
2023-04-02T03:50:04.871Z,0.50
2023-04-02T03:50:58.911Z,0.30
2023-04-02T03:52:26.695Z,0.35
2023-04-02T03:53:11.934Z,0.22
2023-04-02T03:53:54.998Z,0.25
2023-04-02T03:54:37.260Z,0.30
2023-04-02T03:55:23.963Z,0.30
2023-04-02T03:56:07.607Z,0.30
2023-04-02T03:56:52.366Z,0.30
2023-04-02T03:57:57.745Z,0.32
2023-04-02T03:58:47.635Z,0.40
2023-04-02T03:59:39.595Z,0.38
2023-04-02T04:00:36.962Z,0.30
2023-04-02T04:01:31.649Z,0.30
2023-04-02T04:02:35.030Z,0.32
2023-04-02T04:03:26.623Z,0.40
2023-04-02T04:04:18.866Z,0.40
2023-04-02T04:05:02.917Z,0.52
2023-04-02T04:05:54.711Z,0.40
2023-04-02T04:06:41.288Z,0.43
2023-04-02T04:07:41.956Z,0.40
2023-04-02T04:08:34.510Z,0.40
2023-04-02T04:09:25.261Z,0.57
2023-04-02T04:10:15.010Z,0.40
2023-04-02T04:11:01.899Z,0.30
2023-04-02T04:12:05.538Z,0.40
2023-04-02T04:12:49.749Z,0.57
2023-04-02T04:13:49.640Z,0.40
2023-04-02T04:14:33.698Z,0.40
2023-04-02T04:15:23.064Z,0.40
2023-04-02T04:16:09.838Z,0.40
2023-04-02T04:16:59.801Z,0.30
2023-04-02T04:18:13.729Z,0.40
2023-04-02T04:19:21.906Z,0.30
2023-04-02T04:20:17.008Z,0.40
2023-04-02T04:21:02.703Z,0.80
2023-04-02T04:21:57.033Z,0.40
2023-04-02T04:22:41.199Z,0.40
2023-04-02T04:23:38.360Z,0.30
2023-04-02T04:24:24.624Z,0.40
2023-04-02T04:25:29.877Z,0.20
2023-04-02T04:26:24.658Z,0.30
2023-04-02T04:27:35.029Z,0.30
2023-04-02T04:28:38.279Z,0.47
2023-04-02T04:29:50.382Z,0.30
2023-04-02T04:30:47.046Z,0.25
2023-04-02T04:31:46.957Z,0.30
2023-04-02T04:32:39.005Z,0.30
2023-04-02T04:33:39.828Z,0.40
2023-04-02T04:34:46.585Z,0.20
2023-04-02T04:35:38.924Z,0.30
2023-04-02T04:36:31.982Z,0.20
2023-04-02T04:37:33.467Z,0.30
2023-04-02T04:38:27.738Z,0.30
2023-04-02T04:39:17.467Z,0.30
2023-04-02T04:40:11.239Z,0.30
2023-04-02T04:41:01.546Z,0.30
2023-04-02T04:41:47.999Z,0.30
2023-04-02T04:42:34.953Z,0.28
2023-04-02T04:43:38.906Z,0.20
2023-04-02T04:44:31.059Z,0.20
2023-04-02T04:45:49.922Z,0.30
2023-04-02T04:46:57.357Z,0.30
2023-04-02T04:47:46.395Z,0.20
2023-04-02T04:48:35.245Z,0.40
2023-04-02T04:49:31.325Z,0.40
2023-04-02T04:50:27.688Z,0.30
2023-04-02T04:51:19.619Z,0.30
2023-04-02T04:52:10.407Z,0.30
2023-04-02T04:52:52.339Z,0.20
2023-04-02T04:53:46.437Z,0.30
2023-04-02T04:54:28.643Z,0.30
2023-04-02T04:55:44.753Z,0.30
2023-04-02T04:56:30.696Z,0.28
2023-04-02T04:57:36.624Z,0.20
2023-04-02T04:58:31.489Z,0.20
2023-04-02T04:59:31.807Z,0.30
2023-04-02T05:00:16.569Z,0.20
2023-04-02T05:01:04.725Z,0.40
2023-04-02T05:01:53.698Z,0.45
2023-04-02T05:03:03.711Z,0.45
2023-04-02T05:04:16.678Z,0.38
2023-04-02T05:05:01.083Z,0.60
2023-04-02T05:05:43.629Z,0.40
2023-04-02T05:07:15.036Z,0.30
2023-04-02T05:08:25.782Z,0.30
2023-04-02T05:09:35.345Z,0.40
2023-04-02T05:10:28.870Z,0.50
2023-04-02T05:11:24.298Z,0.40
2023-04-02T05:12:39.476Z,0.40
2023-04-02T05:13:41.111Z,0.50
2023-04-02T05:14:32.225Z,0.82
2023-04-02T05:15:42.080Z,0.40
2023-04-02T05:16:33.604Z,0.50
2023-04-02T05:17:24.267Z,0.40
2023-04-02T05:18:27.380Z,0.40
2023-04-02T05:19:23.567Z,0.45
2023-04-02T05:20:11.546Z,0.30
2023-04-02T05:21:06.901Z,0.40
2023-04-02T05:21:55.806Z,0.43
2023-04-02T05:23:05.942Z,0.50
2023-04-02T05:23:51.524Z,0.47
2023-04-02T05:24:40.584Z,0.35
2023-04-02T05:25:27.075Z,0.50
2023-04-02T05:26:21.879Z,0.40
2023-04-02T05:27:19.911Z,0.40
2023-04-02T05:28:19.729Z,0.52
2023-04-02T05:29:22.056Z,0.35
2023-04-02T05:30:08.964Z,0.50
2023-04-02T05:30:56.367Z,0.45
2023-04-02T05:31:48.808Z,0.50
2023-04-02T05:32:37.327Z,0.38
2023-04-02T05:33:28.129Z,0.50
2023-04-02T05:34:13.194Z,0.75
2023-04-02T05:34:57.042Z,0.50
2023-04-02T05:35:44.804Z,0.60
2023-04-02T05:36:29.499Z,0.50
2023-04-02T05:37:19.531Z,0.43
2023-04-02T05:38:02.445Z,0.45
2023-04-02T05:38:47.649Z,0.40
2023-04-02T05:39:33.999Z,0.30
2023-04-02T05:40:52.138Z,0.40
2023-04-02T05:41:39.309Z,0.50
2023-04-02T05:42:29.065Z,0.40
2023-04-02T05:43:19.094Z,0.40
2023-04-02T05:44:26.954Z,0.40
2023-04-02T05:45:19.376Z,0.47
2023-04-02T05:46:13.415Z,0.40
2023-04-02T05:47:06.658Z,0.50
2023-04-02T05:47:52.854Z,0.47
2023-04-02T05:48:46.100Z,0.35
2023-04-02T05:49:50.464Z,0.70
2023-04-02T05:50:40.988Z,0.43
2023-04-02T05:51:38.612Z,0.40
2023-04-02T05:52:24.896Z,0.32
2023-04-02T05:53:14.308Z,0.45
2023-04-02T05:54:00.174Z,0.40
2023-04-02T05:54:51.981Z,0.43
2023-04-02T05:56:03.963Z,0.40
2023-04-02T05:56:54.090Z,0.20
2023-04-02T05:57:49.584Z,0.20
2023-04-02T05:58:47.111Z,0.30
2023-04-02T05:59:43.171Z,0.73
2023-04-02T06:00:41.009Z,0.40
2023-04-02T06:02:02.870Z,0.68
2023-04-02T06:02:56.425Z,0.50
2023-04-02T06:03:51.709Z,0.50
2023-04-02T06:04:42.471Z,0.40
2023-04-02T06:05:28.569Z,0.40
2023-04-02T06:06:21.150Z,0.30
2023-04-02T06:07:11.233Z,0.50
2023-04-02T06:08:01.329Z,0.40
2023-04-02T06:08:51.188Z,0.20
2023-04-02T06:09:43.258Z,0.30
2023-04-02T06:10:33.960Z,0.20
2023-04-02T06:11:26.083Z,0.25
2023-04-02T06:12:17.516Z,0.40
2023-04-02T06:13:05.514Z,0.20
2023-04-02T06:13:58.391Z,0.30
2023-04-02T06:14:40.161Z,0.20
2023-04-02T06:15:24.693Z,0.35
2023-04-02T06:16:15.629Z,0.40
2023-04-02T06:16:57.302Z,0.40
2023-04-02T06:18:04.454Z,0.40
2023-04-02T06:18:47.886Z,0.55
2023-04-02T06:19:35.823Z,0.32
2023-04-02T06:20:20.899Z,0.30
2023-04-02T06:21:04.128Z,0.30
2023-04-02T06:21:49.809Z,0.40
2023-04-02T06:22:42.469Z,0.43
2023-04-02T06:23:39.197Z,0.30
2023-04-02T06:24:26.726Z,0.50
2023-04-02T06:25:22.804Z,0.50
2023-04-02T06:26:27.473Z,0.40
2023-04-02T06:27:14.818Z,0.40
2023-04-02T06:28:04.047Z,0.55
2023-04-02T06:28:49.121Z,0.50
2023-04-02T06:29:39.964Z,0.40
2023-04-02T06:30:38.450Z,0.40
2023-04-02T06:31:29.567Z,0.50
2023-04-02T06:32:12.981Z,0.45
2023-04-02T06:32:58.211Z,0.47
2023-04-02T06:33:41.103Z,0.40
2023-04-02T06:34:25.745Z,0.30
2023-04-02T06:35:15.815Z,0.40
2023-04-02T06:36:01.577Z,0.50
2023-04-02T06:36:47.119Z,0.50
2023-04-02T06:37:43.092Z,0.50
2023-04-02T06:38:32.973Z,0.50
2023-04-02T06:39:22.989Z,0.40
2023-04-02T06:40:17.243Z,0.45
2023-04-02T06:41:10.623Z,0.50
2023-04-02T06:42:12.904Z,0.45
2023-04-02T06:43:26.850Z,0.80
2023-04-02T06:44:21.555Z,0.50
2023-04-02T06:45:29.864Z,0.50
2023-04-02T06:46:36.135Z,0.60
2023-04-02T06:47:26.809Z,0.60
2023-04-02T06:48:17.566Z,0.77
2023-04-02T06:49:20.594Z,0.80
2023-04-02T06:50:07.130Z,0.90
2023-04-02T06:50:51.053Z,0.77
2023-04-02T06:51:37.042Z,0.80
2023-04-02T06:52:26.013Z,0.80
2023-04-02T06:53:13.219Z,0.90
2023-04-02T06:53:56.103Z,0.60
2023-04-02T06:54:37.818Z,0.90
2023-04-02T06:55:46.951Z,2.58
2023-04-02T06:56:44.621Z,1.95
2023-04-02T06:57:32.681Z,1.52
2023-04-02T06:58:16.448Z,1.13
2023-04-02T06:58:58.931Z,0.90
2023-04-02T06:59:40.875Z,0.60
2023-04-02T07:00:44.163Z,0.60
2023-04-02T07:01:34.382Z,0.77
2023-04-02T07:02:24.765Z,0.77
2023-04-02T07:03:14.026Z,0.63
2023-04-02T07:03:56.284Z,0.70
2023-04-02T07:04:46.632Z,0.57
2023-04-02T07:05:29.221Z,0.68
2023-04-02T07:06:19.658Z,0.70
2023-04-02T07:07:03.324Z,0.60
2023-04-02T07:07:48.602Z,0.77
2023-04-02T07:08:31.056Z,0.40
2023-04-02T07:09:12.805Z,0.40
2023-04-02T07:09:58.044Z,0.50
2023-04-02T07:10:40.072Z,0.70
2023-04-02T07:11:22.791Z,0.55
2023-04-02T07:12:23.042Z,0.60
2023-04-02T07:13:05.895Z,0.55
2023-04-02T07:13:48.943Z,0.47
2023-04-02T07:14:30.846Z,0.50
2023-04-02T07:15:19.969Z,0.55
2023-04-02T07:16:01.943Z,0.60
2023-04-02T07:16:44.279Z,0.40
2023-04-02T07:17:25.969Z,0.50
2023-04-02T07:18:21.176Z,0.50
2023-04-02T07:19:04.213Z,0.60
2023-04-02T07:19:51.361Z,0.70
2023-04-02T07:20:38.975Z,1.10
2023-04-02T07:21:26.024Z,0.50
2023-04-02T07:22:07.856Z,0.82
2023-04-02T07:22:54.163Z,0.60
2023-04-02T07:23:35.990Z,0.80
2023-04-02T07:24:17.667Z,0.82
2023-04-02T07:24:59.306Z,0.40
2023-04-02T07:25:40.999Z,0.65
2023-04-02T07:26:27.337Z,0.70
2023-04-02T07:27:11.262Z,0.45
2023-04-02T07:27:53.513Z,0.68
2023-04-02T07:28:35.408Z,0.47
2023-04-02T07:29:17.518Z,0.50
2023-04-02T07:29:59.073Z,0.30
2023-04-02T07:30:41.240Z,0.40
2023-04-02T07:31:25.924Z,0.47
2023-04-02T07:32:12.187Z,0.60
2023-04-02T07:32:53.923Z,0.63
2023-04-02T07:33:35.620Z,1.23
2023-04-02T07:34:17.197Z,0.75
2023-04-02T07:34:58.793Z,0.65
2023-04-02T07:35:41.114Z,0.57
2023-04-02T07:36:24.122Z,0.40
2023-04-02T07:37:05.902Z,0.38
2023-04-02T07:37:47.551Z,0.45
2023-04-02T07:38:29.160Z,0.35
2023-04-02T07:39:11.082Z,0.30
2023-04-02T07:39:52.707Z,0.45
2023-04-02T07:40:34.372Z,0.30
2023-04-02T07:41:17.057Z,0.30
2023-04-02T07:42:01.170Z,0.30
2023-04-02T07:42:45.318Z,0.30
2023-04-02T07:43:26.961Z,0.30
2023-04-02T07:44:10.833Z,0.30
2023-04-02T07:44:52.472Z,0.45
2023-04-02T07:45:34.848Z,0.40
2023-04-02T07:46:18.112Z,0.40
2023-04-02T07:47:00.103Z,0.40
2023-04-02T07:47:42.792Z,0.30
2023-04-02T07:48:24.441Z,0.30
2023-04-02T07:49:06.366Z,0.32
2023-04-02T07:49:48.070Z,0.30
2023-04-02T07:50:30.537Z,0.35
2023-04-02T07:51:24.503Z,0.32
2023-04-02T07:52:06.854Z,0.30
2023-04-02T07:52:48.489Z,0.30
2023-04-02T07:53:38.660Z,0.47
2023-04-02T07:54:20.489Z,0.20
2023-04-02T07:55:02.611Z,0.30
2023-04-02T07:55:44.451Z,0.30
2023-04-02T07:56:26.533Z,0.40
2023-04-02T07:57:08.219Z,0.40
2023-04-02T07:57:49.860Z,0.30
2023-04-02T07:58:32.949Z,0.30
2023-04-02T07:59:14.604Z,0.20
2023-04-02T07:59:57.055Z,0.40
2023-04-02T08:00:38.682Z,0.30
2023-04-02T08:01:26.050Z,0.30
2023-04-02T08:02:19.998Z,0.30
2023-04-02T08:03:01.828Z,0.30
2023-04-02T08:03:43.572Z,0.30
2023-04-02T08:04:25.441Z,0.40
2023-04-02T08:05:07.890Z,0.40
2023-04-02T08:05:54.209Z,0.40
2023-04-02T08:06:36.064Z,0.40
2023-04-02T08:07:19.042Z,0.30
2023-04-02T08:08:00.940Z,0.30
2023-04-02T08:08:42.959Z,0.30
2023-04-02T08:09:24.679Z,0.40
2023-04-02T08:10:06.862Z,0.30
2023-04-02T08:10:49.056Z,0.40
2023-04-02T08:11:31.926Z,0.45
2023-04-02T08:12:14.805Z,0.60
2023-04-02T08:12:56.671Z,1.67
2023-04-02T08:13:38.885Z,0.70
2023-04-02T08:14:21.006Z,0.40
2023-04-02T08:15:05.860Z,0.75
2023-04-02T08:15:47.502Z,0.65
2023-04-02T08:16:43.836Z,0.50
2023-04-02T08:17:26.876Z,0.40
2023-04-02T08:18:09.081Z,0.50
2023-04-02T08:18:51.410Z,0.30
2023-04-02T08:19:44.356Z,0.30
2023-04-02T08:20:29.652Z,0.40
2023-04-02T08:21:11.580Z,0.40
2023-04-02T08:21:53.674Z,0.30
2023-04-02T08:22:35.537Z,0.30
2023-04-02T08:23:17.987Z,0.32
2023-04-02T08:23:59.748Z,0.30
2023-04-02T08:24:41.485Z,0.40
2023-04-02T08:25:23.160Z,0.50
2023-04-02T08:26:06.507Z,0.43
2023-04-02T08:26:49.734Z,0.40
2023-04-02T08:27:31.635Z,1.00
2023-04-02T08:28:13.538Z,2.20
2023-04-02T08:28:55.271Z,2.10
2023-04-02T08:29:36.957Z,1.52
2023-04-02T08:30:19.319Z,1.58
2023-04-02T08:31:02.126Z,0.80
2023-04-02T08:31:43.839Z,0.90
2023-04-02T08:32:26.496Z,0.88
2023-04-02T08:33:08.306Z,0.50
2023-04-02T08:33:50.221Z,0.60
2023-04-02T08:34:31.859Z,0.60
2023-04-02T08:35:16.383Z,0.50
2023-04-02T08:35:58.123Z,0.50
2023-04-02T08:36:43.383Z,0.63
2023-04-02T08:37:25.139Z,0.40
2023-04-02T08:38:07.325Z,0.40
2023-04-02T08:38:49.012Z,0.47
2023-04-02T08:39:33.040Z,0.50
2023-04-02T08:40:37.686Z,0.50
2023-04-02T08:41:28.374Z,0.40
2023-04-02T08:42:23.371Z,0.43
2023-04-02T08:43:51.489Z,0.60
2023-04-02T08:44:54.449Z,0.43
2023-04-02T08:45:54.147Z,1.17
2023-04-02T08:46:42.104Z,1.90
2023-04-02T08:47:29.821Z,2.15
2023-04-02T08:48:15.422Z,1.63
2023-04-02T08:49:00.689Z,0.73
2023-04-02T08:49:50.849Z,0.50
2023-04-02T08:50:38.942Z,0.40
2023-04-02T08:51:26.664Z,0.50
2023-04-02T08:52:30.508Z,0.40
2023-04-02T08:53:22.626Z,0.43
2023-04-02T08:54:29.348Z,0.40
2023-04-02T08:55:36.104Z,0.30
2023-04-02T08:56:30.568Z,0.40
2023-04-02T08:57:20.361Z,0.40
2023-04-02T08:58:21.830Z,0.30
2023-04-02T08:59:37.542Z,0.40
2023-04-02T09:00:20.340Z,0.50
2023-04-02T09:01:05.794Z,0.70
2023-04-02T09:02:11.766Z,0.35
2023-04-02T09:03:00.568Z,0.38
2023-04-02T09:03:47.109Z,0.43
2023-04-02T09:04:33.380Z,0.50
2023-04-02T09:05:29.578Z,0.40
2023-04-02T09:06:16.887Z,0.50
2023-04-02T09:07:00.427Z,0.50
2023-04-02T09:07:42.234Z,0.40
2023-04-02T09:08:26.061Z,0.35
2023-04-02T09:09:08.956Z,0.40
2023-04-02T09:09:51.101Z,0.35
2023-04-02T09:10:50.888Z,0.40
2023-04-02T09:11:41.595Z,0.40
2023-04-02T09:12:29.879Z,0.50
2023-04-02T09:13:23.213Z,0.40
2023-04-02T09:14:15.927Z,0.32
2023-04-02T09:15:20.641Z,0.43
2023-04-02T09:16:05.136Z,0.57
2023-04-02T09:17:01.642Z,0.55
2023-04-02T09:17:53.587Z,0.45
2023-04-02T09:18:36.854Z,0.55
2023-04-02T09:19:25.790Z,0.52
2023-04-02T09:20:19.266Z,0.50
2023-04-02T09:21:12.981Z,0.60
2023-04-02T09:22:20.777Z,0.60
2023-04-02T09:23:02.515Z,0.52
2023-04-02T09:23:44.174Z,0.47
2023-04-02T09:24:26.062Z,0.50
2023-04-02T09:25:14.812Z,0.60
2023-04-02T09:26:03.972Z,0.52
2023-04-02T09:26:46.452Z,0.45
2023-04-02T09:27:31.781Z,0.70
2023-04-02T09:28:14.670Z,0.47
2023-04-02T09:29:26.041Z,0.60
2023-04-02T09:30:29.645Z,0.47
2023-04-02T09:31:32.138Z,0.60
2023-04-02T09:32:27.671Z,0.60
2023-04-02T09:33:12.809Z,0.60
2023-04-02T09:33:54.711Z,0.55
2023-04-02T09:34:36.863Z,0.60
2023-04-02T09:35:26.453Z,0.57
2023-04-02T09:36:19.607Z,0.60
2023-04-02T09:37:22.925Z,0.57
2023-04-02T09:38:07.339Z,0.60
2023-04-02T09:39:01.510Z,0.47
2023-04-02T09:39:43.489Z,0.40
2023-04-02T09:40:28.960Z,0.40
2023-04-02T09:41:20.919Z,0.45
2023-04-02T09:42:29.017Z,0.60
2023-04-02T09:43:16.466Z,0.60
2023-04-02T09:44:21.296Z,1.13
2023-04-02T09:45:12.868Z,0.73
2023-04-02T09:46:12.728Z,0.60
2023-04-02T09:46:56.243Z,0.70
2023-04-02T09:47:40.939Z,0.70
2023-04-02T09:48:30.148Z,1.20
2023-04-02T09:49:15.900Z,0.80
2023-04-02T09:50:14.296Z,1.15
2023-04-02T09:51:15.420Z,0.80
2023-04-02T09:52:15.326Z,0.80
2023-04-02T09:52:57.397Z,0.90
2023-04-02T09:53:42.275Z,0.77
2023-04-02T09:54:24.229Z,0.80
2023-04-02T09:55:31.059Z,0.90
2023-04-02T09:56:16.774Z,1.20
2023-04-02T09:57:03.956Z,1.20
2023-04-02T09:57:46.958Z,0.90
2023-04-02T09:58:28.575Z,1.05
2023-04-02T09:59:12.989Z,1.20
2023-04-02T10:00:30.642Z,1.13
2023-04-02T10:01:33.107Z,1.20
2023-04-02T10:02:28.680Z,0.95
2023-04-02T10:04:44.677Z,0.70
2023-04-02T10:05:39.902Z,0.90
2023-04-02T10:06:22.594Z,0.90
2023-04-02T10:07:06.509Z,0.90
2023-04-02T10:07:53.158Z,0.85
2023-04-02T10:08:36.149Z,0.90
2023-04-02T10:09:30.417Z,0.75
2023-04-02T10:10:33.020Z,0.80
2023-04-02T10:11:26.867Z,0.70
2023-04-02T10:12:14.960Z,0.70
2023-04-02T10:13:19.467Z,0.68
2023-04-02T10:14:07.063Z,0.57
2023-04-02T10:14:49.809Z,0.75
2023-04-02T10:15:58.340Z,0.75
2023-04-02T10:16:44.528Z,0.70
2023-04-02T10:17:30.940Z,0.55
2023-04-02T10:18:30.631Z,0.60
2023-04-02T10:19:36.246Z,0.95
2023-04-02T10:20:23.096Z,0.70
2023-04-02T10:21:06.396Z,0.70
2023-04-02T10:21:52.215Z,0.90
2023-04-02T10:22:33.822Z,1.10
2023-04-02T10:23:17.532Z,1.50
2023-04-02T10:23:59.700Z,1.77
2023-04-02T10:24:41.374Z,3.38
2023-04-02T10:25:29.467Z,2.53
2023-04-02T10:26:31.068Z,1.75
2023-04-02T10:27:53.513Z,1.00
2023-04-02T10:28:55.971Z,0.90
2023-04-02T10:30:05.382Z,0.70
2023-04-02T10:31:17.356Z,0.60
2023-04-02T10:32:20.390Z,0.90
2023-04-02T10:33:17.080Z,0.88
2023-04-02T10:34:11.323Z,1.10
2023-04-02T10:35:03.544Z,4.15
2023-04-02T10:35:57.252Z,2.80
2023-04-02T10:37:06.641Z,1.65
2023-04-02T10:38:16.212Z,1.40
2023-04-02T10:39:08.481Z,2.28
2023-04-02T10:39:58.470Z,2.50
2023-04-02T10:40:42.642Z,1.00
2023-04-02T10:41:43.532Z,1.00
2023-04-02T10:42:31.232Z,1.00
2023-04-02T10:43:37.935Z,0.80
2023-04-02T10:44:28.547Z,1.60
2023-04-02T10:45:45.393Z,2.33
2023-04-02T10:46:46.461Z,1.33
2023-04-02T10:47:51.683Z,0.82
2023-04-02T10:49:10.985Z,0.95
2023-04-02T10:50:33.997Z,0.73
2023-04-02T10:51:30.915Z,0.80
2023-04-02T10:52:21.131Z,1.10
2023-04-02T10:53:16.910Z,1.70
2023-04-02T10:54:23.528Z,1.80
2023-04-02T10:55:16.559Z,1.17
2023-04-02T10:56:04.764Z,1.50
2023-04-02T10:56:51.073Z,2.00
2023-04-02T10:57:35.950Z,2.20
2023-04-02T10:58:29.994Z,1.80
2023-04-02T10:59:21.276Z,2.33
2023-04-02T11:00:09.025Z,3.63
2023-04-02T11:00:56.301Z,2.28
2023-04-02T11:01:41.550Z,2.42
2023-04-02T11:02:34.750Z,2.00
2023-04-02T11:03:40.140Z,2.20
2023-04-02T11:04:29.462Z,2.00
2023-04-02T11:05:20.815Z,2.45
2023-04-02T11:06:12.172Z,1.58
2023-04-02T11:07:11.193Z,1.10
2023-04-02T11:08:01.930Z,0.90
2023-04-02T11:08:50.565Z,1.05
2023-04-02T11:09:37.233Z,0.90
2023-04-02T11:10:21.081Z,0.95
2023-04-02T11:11:29.152Z,0.70
2023-04-02T11:12:33.269Z,1.00
2023-04-02T11:13:20.408Z,1.52
2023-04-02T11:14:16.710Z,1.40
2023-04-02T11:14:59.612Z,0.95
2023-04-02T11:15:41.869Z,1.00
2023-04-02T11:16:24.153Z,0.90
2023-04-02T11:17:05.916Z,0.77
2023-04-02T11:17:48.201Z,0.85
2023-04-02T11:18:38.545Z,0.50
2023-04-02T11:19:20.150Z,0.60
2023-04-02T11:20:40.559Z,0.80
2023-04-02T11:21:57.312Z,0.90